sensor_id;sensor_type;location;lat;lon;timestamp;temperature;humidity
21950;DHT22;11139;51.284;7.226;2023-11-19T00:00:54;7.50;99.90
21950;DHT22;11139;51.284;7.226;2023-11-19T00:03:19;7.60;99.90
21950;DHT22;11139;51.284;7.226;2023-11-19T00:05:45;7.60;99.90
21950;DHT22;11139;51.284;7.226;2023-11-19T00:08:11;7.60;99.90
21950;DHT22;11139;51.284;7.226;2023-11-19T00:10:36;7.60;99.90
21950;DHT22;11139;51.284;7.226;2023-11-19T00:13:02;7.60;99.90
21950;DHT22;11139;51.284;7.226;2023-11-19T00:15:30;7.60;99.90
21950;DHT22;11139;51.284;7.226;2023-11-19T00:17:56;7.70;99.90
21950;DHT22;11139;51.284;7.226;2023-11-19T00:20:21;7.70;99.90
21950;DHT22;11139;51.284;7.226;2023-11-19T00:22:49;7.70;99.90
21950;DHT22;11139;51.284;7.226;2023-11-19T00:25:18;7.60;99.90
21950;DHT22;11139;51.284;7.226;2023-11-19T00:27:44;7.70;99.90
21950;DHT22;11139;51.284;7.226;2023-11-19T00:30:12;7.70;99.90
21950;DHT22;11139;51.284;7.226;2023-11-19T00:32:39;7.70;99.90
21950;DHT22;11139;51.284;7.226;2023-11-19T00:35:05;7.70;99.90
21950;DHT22;11139;51.284;7.226;2023-11-19T00:37:31;7.70;99.90
21950;DHT22;11139;51.284;7.226;2023-11-19T00:39:56;7.70;99.90
21950;DHT22;11139;51.284;7.226;2023-11-19T00:42:23;7.70;99.90
21950;DHT22;11139;51.284;7.226;2023-11-19T00:44:50;7.70;99.90
21950;DHT22;11139;51.284;7.226;2023-11-19T00:47:15;7.70;99.90
21950;DHT22;11139;51.284;7.226;2023-11-19T00:49:41;7.70;99.90
21950;DHT22;11139;51.284;7.226;2023-11-19T00:52:08;7.70;99.90
21950;DHT22;11139;51.284;7.226;2023-11-19T00:54:33;7.70;99.90
21950;DHT22;11139;51.284;7.226;2023-11-19T00:56:59;7.70;99.90
21950;DHT22;11139;51.284;7.226;2023-11-19T00:59:24;7.70;99.90
21950;DHT22;11139;51.284;7.226;2023-11-19T01:01:50;7.70;99.90
21950;DHT22;11139;51.284;7.226;2023-11-19T01:04:16;7.70;99.90
21950;DHT22;11139;51.284;7.226;2023-11-19T01:06:42;7.70;99.90
21950;DHT22;11139;51.284;7.226;2023-11-19T01:09:07;7.70;99.90
21950;DHT22;11139;51.284;7.226;2023-11-19T01:11:34;7.70;99.90
21950;DHT22;11139;51.284;7.226;2023-11-19T01:13:59;7.70;99.90
21950;DHT22;11139;51.284;7.226;2023-11-19T01:16:25;7.80;99.90
21950;DHT22;11139;51.284;7.226;2023-11-19T01:18:51;7.80;99.90
21950;DHT22;11139;51.284;7.226;2023-11-19T01:21:16;7.80;99.90
21950;DHT22;11139;51.284;7.226;2023-11-19T01:23:42;7.80;99.90
21950;DHT22;11139;51.284;7.226;2023-11-19T01:26:09;7.80;99.90
21950;DHT22;11139;51.284;7.226;2023-11-19T01:28:35;7.80;99.90
21950;DHT22;11139;51.284;7.226;2023-11-19T01:31:01;7.80;99.90
21950;DHT22;11139;51.284;7.226;2023-11-19T01:33:26;7.80;99.90
21950;DHT22;11139;51.284;7.226;2023-11-19T01:35:53;7.80;99.90
21950;DHT22;11139;51.284;7.226;2023-11-19T01:38:19;7.80;99.90
21950;DHT22;11139;51.284;7.226;2023-11-19T01:40:44;7.80;99.90
21950;DHT22;11139;51.284;7.226;2023-11-19T01:43:10;7.80;99.90
21950;DHT22;11139;51.284;7.226;2023-11-19T01:45:36;7.80;99.90
21950;DHT22;11139;51.284;7.226;2023-11-19T01:48:02;7.90;99.90
21950;DHT22;11139;51.284;7.226;2023-11-19T01:50:32;7.80;99.90
21950;DHT22;11139;51.284;7.226;2023-11-19T01:52:58;7.80;99.90
21950;DHT22;11139;51.284;7.226;2023-11-19T01:55:24;7.90;99.90
21950;DHT22;11139;51.284;7.226;2023-11-19T01:57:49;7.90;99.90
21950;DHT22;11139;51.284;7.226;2023-11-19T02:00:16;7.90;99.90
21950;DHT22;11139;51.284;7.226;2023-11-19T02:02:42;7.90;99.90
21950;DHT22;11139;51.284;7.226;2023-11-19T02:05:08;7.90;99.90
21950;DHT22;11139;51.284;7.226;2023-11-19T02:07:34;7.90;99.90
21950;DHT22;11139;51.284;7.226;2023-11-19T02:10:00;7.90;99.90
21950;DHT22;11139;51.284;7.226;2023-11-19T02:12:27;7.90;99.90
21950;DHT22;11139;51.284;7.226;2023-11-19T02:14:59;7.90;99.90
21950;DHT22;11139;51.284;7.226;2023-11-19T02:17:28;7.90;99.90
21950;DHT22;11139;51.284;7.226;2023-11-19T02:19:54;7.90;99.90
21950;DHT22;11139;51.284;7.226;2023-11-19T02:22:19;7.90;99.90
21950;DHT22;11139;51.284;7.226;2023-11-19T02:24:45;7.90;99.90
21950;DHT22;11139;51.284;7.226;2023-11-19T02:27:16;7.90;99.90
21950;DHT22;11139;51.284;7.226;2023-11-19T02:29:44;7.90;99.90
21950;DHT22;11139;51.284;7.226;2023-11-19T02:32:09;8.00;99.90
21950;DHT22;11139;51.284;7.226;2023-11-19T02:34:35;8.00;99.90
21950;DHT22;11139;51.284;7.226;2023-11-19T02:37:00;8.00;99.90
21950;DHT22;11139;51.284;7.226;2023-11-19T02:39:26;8.00;99.90
21950;DHT22;11139;51.284;7.226;2023-11-19T02:41:51;8.00;99.90
21950;DHT22;11139;51.284;7.226;2023-11-19T02:44:18;8.00;99.90
21950;DHT22;11139;51.284;7.226;2023-11-19T02:46:44;8.00;99.90
21950;DHT22;11139;51.284;7.226;2023-11-19T02:49:09;8.00;99.90
21950;DHT22;11139;51.284;7.226;2023-11-19T02:51:35;8.00;99.90
21950;DHT22;11139;51.284;7.226;2023-11-19T02:54:01;8.00;99.90
21950;DHT22;11139;51.284;7.226;2023-11-19T02:56:28;8.00;99.90
21950;DHT22;11139;51.284;7.226;2023-11-19T02:58:59;8.00;99.90
21950;DHT22;11139;51.284;7.226;2023-11-19T03:01:32;8.00;99.90
21950;DHT22;11139;51.284;7.226;2023-11-19T03:03:59;8.00;99.90
21950;DHT22;11139;51.284;7.226;2023-11-19T03:06:26;8.00;99.90
21950;DHT22;11139;51.284;7.226;2023-11-19T03:08:52;8.10;99.90
21950;DHT22;11139;51.284;7.226;2023-11-19T03:11:18;8.10;99.90
21950;DHT22;11139;51.284;7.226;2023-11-19T03:13:43;8.10;99.90
21950;DHT22;11139;51.284;7.226;2023-11-19T03:16:09;8.10;99.90
21950;DHT22;11139;51.284;7.226;2023-11-19T03:18:37;8.10;99.90
21950;DHT22;11139;51.284;7.226;2023-11-19T03:21:04;8.10;99.90
21950;DHT22;11139;51.284;7.226;2023-11-19T03:23:30;8.10;99.90
21950;DHT22;11139;51.284;7.226;2023-11-19T03:25:56;8.10;99.90
21950;DHT22;11139;51.284;7.226;2023-11-19T03:28:22;8.10;99.90
21950;DHT22;11139;51.284;7.226;2023-11-19T03:30:47;8.10;99.90
21950;DHT22;11139;51.284;7.226;2023-11-19T03:33:13;8.10;99.90
21950;DHT22;11139;51.284;7.226;2023-11-19T03:35:38;8.10;99.90
21950;DHT22;11139;51.284;7.226;2023-11-19T03:38:06;8.20;99.90
21950;DHT22;11139;51.284;7.226;2023-11-19T03:40:31;8.20;99.90
21950;DHT22;11139;51.284;7.226;2023-11-19T03:42:57;8.20;99.90
21950;DHT22;11139;51.284;7.226;2023-11-19T03:45:23;8.20;99.90
21950;DHT22;11139;51.284;7.226;2023-11-19T03:47:50;8.20;99.90
21950;DHT22;11139;51.284;7.226;2023-11-19T03:50:15;8.20;99.90
21950;DHT22;11139;51.284;7.226;2023-11-19T03:52:41;8.20;99.90
21950;DHT22;11139;51.284;7.226;2023-11-19T03:55:07;8.20;99.90
21950;DHT22;11139;51.284;7.226;2023-11-19T03:57:34;8.20;99.90
21950;DHT22;11139;51.284;7.226;2023-11-19T03:59:59;8.20;99.90
21950;DHT22;11139;51.284;7.226;2023-11-19T04:02:25;8.20;99.90
21950;DHT22;11139;51.284;7.226;2023-11-19T04:04:53;8.30;99.90
21950;DHT22;11139;51.284;7.226;2023-11-19T04:07:19;8.30;99.90
21950;DHT22;11139;51.284;7.226;2023-11-19T04:09:44;8.30;99.90
21950;DHT22;11139;51.284;7.226;2023-11-19T04:12:09;8.30;99.90
21950;DHT22;11139;51.284;7.226;2023-11-19T04:14:36;8.30;99.90
21950;DHT22;11139;51.284;7.226;2023-11-19T04:17:01;8.30;99.90
21950;DHT22;11139;51.284;7.226;2023-11-19T04:19:27;8.30;99.90
21950;DHT22;11139;51.284;7.226;2023-11-19T04:21:53;8.30;99.90
21950;DHT22;11139;51.284;7.226;2023-11-19T04:24:19;8.30;99.90
21950;DHT22;11139;51.284;7.226;2023-11-19T04:26:44;8.30;99.90
21950;DHT22;11139;51.284;7.226;2023-11-19T04:29:13;8.40;99.90
21950;DHT22;11139;51.284;7.226;2023-11-19T04:31:40;8.40;99.90
21950;DHT22;11139;51.284;7.226;2023-11-19T04:34:06;8.40;99.90
21950;DHT22;11139;51.284;7.226;2023-11-19T04:36:34;8.40;99.90
21950;DHT22;11139;51.284;7.226;2023-11-19T04:39:00;8.40;99.90
21950;DHT22;11139;51.284;7.226;2023-11-19T04:41:26;8.40;99.90
21950;DHT22;11139;51.284;7.226;2023-11-19T04:43:55;8.40;99.90
21950;DHT22;11139;51.284;7.226;2023-11-19T04:46:20;8.40;99.90
21950;DHT22;11139;51.284;7.226;2023-11-19T04:48:46;8.40;99.90
21950;DHT22;11139;51.284;7.226;2023-11-19T04:51:11;8.40;99.90
21950;DHT22;11139;51.284;7.226;2023-11-19T04:53:37;8.40;99.90
21950;DHT22;11139;51.284;7.226;2023-11-19T04:56:09;8.40;99.90
21950;DHT22;11139;51.284;7.226;2023-11-19T04:58:35;8.40;99.90
21950;DHT22;11139;51.284;7.226;2023-11-19T05:01:05;8.40;99.90
21950;DHT22;11139;51.284;7.226;2023-11-19T05:03:31;8.50;99.90
21950;DHT22;11139;51.284;7.226;2023-11-19T05:05:57;8.50;99.90
21950;DHT22;11139;51.284;7.226;2023-11-19T05:08:22;8.50;99.90
21950;DHT22;11139;51.284;7.226;2023-11-19T05:10:48;8.50;99.90
21950;DHT22;11139;51.284;7.226;2023-11-19T05:13:13;8.50;99.90
21950;DHT22;11139;51.284;7.226;2023-11-19T05:15:40;8.50;99.90
21950;DHT22;11139;51.284;7.226;2023-11-19T05:18:06;8.50;99.90
21950;DHT22;11139;51.284;7.226;2023-11-19T05:20:31;8.50;99.90
21950;DHT22;11139;51.284;7.226;2023-11-19T05:22:57;8.50;99.90
21950;DHT22;11139;51.284;7.226;2023-11-19T05:25:25;8.50;99.90
21950;DHT22;11139;51.284;7.226;2023-11-19T05:27:52;8.50;99.90
21950;DHT22;11139;51.284;7.226;2023-11-19T05:30:17;8.50;99.90
21950;DHT22;11139;51.284;7.226;2023-11-19T05:32:43;8.50;99.90
21950;DHT22;11139;51.284;7.226;2023-11-19T05:35:08;8.60;99.90
21950;DHT22;11139;51.284;7.226;2023-11-19T05:37:34;8.60;99.90
21950;DHT22;11139;51.284;7.226;2023-11-19T05:40:00;8.60;99.90
21950;DHT22;11139;51.284;7.226;2023-11-19T05:42:28;8.60;99.90
21950;DHT22;11139;51.284;7.226;2023-11-19T05:44:53;8.60;99.90
21950;DHT22;11139;51.284;7.226;2023-11-19T05:47:19;8.60;99.90
21950;DHT22;11139;51.284;7.226;2023-11-19T05:49:44;8.60;99.90
21950;DHT22;11139;51.284;7.226;2023-11-19T05:52:10;8.60;99.90
21950;DHT22;11139;51.284;7.226;2023-11-19T05:54:37;8.60;99.90
21950;DHT22;11139;51.284;7.226;2023-11-19T05:57:04;8.60;99.90
21950;DHT22;11139;51.284;7.226;2023-11-19T05:59:30;8.70;99.90
21950;DHT22;11139;51.284;7.226;2023-11-19T06:01:57;8.60;99.90
21950;DHT22;11139;51.284;7.226;2023-11-19T06:04:23;8.70;99.90
21950;DHT22;11139;51.284;7.226;2023-11-19T06:06:48;8.70;99.90
21950;DHT22;11139;51.284;7.226;2023-11-19T06:09:14;8.70;99.90
21950;DHT22;11139;51.284;7.226;2023-11-19T06:11:39;8.70;99.90
21950;DHT22;11139;51.284;7.226;2023-11-19T06:14:05;8.70;99.90
21950;DHT22;11139;51.284;7.226;2023-11-19T06:16:31;8.70;99.90
21950;DHT22;11139;51.284;7.226;2023-11-19T06:18:57;8.70;99.90
21950;DHT22;11139;51.284;7.226;2023-11-19T06:21:22;8.70;99.90
21950;DHT22;11139;51.284;7.226;2023-11-19T06:23:48;8.70;99.90
21950;DHT22;11139;51.284;7.226;2023-11-19T06:26:14;8.70;99.90
21950;DHT22;11139;51.284;7.226;2023-11-19T06:28:39;8.70;99.90
21950;DHT22;11139;51.284;7.226;2023-11-19T06:31:05;8.70;99.90
21950;DHT22;11139;51.284;7.226;2023-11-19T06:33:31;8.70;99.90
21950;DHT22;11139;51.284;7.226;2023-11-19T06:35:56;8.70;99.90
21950;DHT22;11139;51.284;7.226;2023-11-19T06:38:22;8.70;99.90
21950;DHT22;11139;51.284;7.226;2023-11-19T06:40:47;8.70;99.90
21950;DHT22;11139;51.284;7.226;2023-11-19T06:43:13;8.80;99.90
21950;DHT22;11139;51.284;7.226;2023-11-19T06:45:39;8.80;99.90
21950;DHT22;11139;51.284;7.226;2023-11-19T06:48:05;8.80;99.90
21950;DHT22;11139;51.284;7.226;2023-11-19T06:50:31;8.80;99.90
21950;DHT22;11139;51.284;7.226;2023-11-19T06:52:56;8.80;99.90
21950;DHT22;11139;51.284;7.226;2023-11-19T06:55:22;8.80;99.90
21950;DHT22;11139;51.284;7.226;2023-11-19T06:57:47;8.80;99.90
21950;DHT22;11139;51.284;7.226;2023-11-19T07:00:13;8.80;99.90
21950;DHT22;11139;51.284;7.226;2023-11-19T07:02:38;8.80;99.90
21950;DHT22;11139;51.284;7.226;2023-11-19T07:05:04;8.80;99.90
21950;DHT22;11139;51.284;7.226;2023-11-19T07:07:30;8.80;99.90
21950;DHT22;11139;51.284;7.226;2023-11-19T07:09:56;8.80;99.90
21950;DHT22;11139;51.284;7.226;2023-11-19T07:12:22;8.80;99.90
21950;DHT22;11139;51.284;7.226;2023-11-19T07:14:47;8.80;99.90
21950;DHT22;11139;51.284;7.226;2023-11-19T07:17:13;8.80;99.90
21950;DHT22;11139;51.284;7.226;2023-11-19T07:19:39;8.80;99.90
21950;DHT22;11139;51.284;7.226;2023-11-19T07:22:04;8.80;99.90
21950;DHT22;11139;51.284;7.226;2023-11-19T07:24:31;8.80;99.90
21950;DHT22;11139;51.284;7.226;2023-11-19T07:26:57;8.80;99.90
21950;DHT22;11139;51.284;7.226;2023-11-19T07:29:22;8.90;99.90
21950;DHT22;11139;51.284;7.226;2023-11-19T07:31:48;8.80;99.90
21950;DHT22;11139;51.284;7.226;2023-11-19T07:34:14;8.90;99.90
21950;DHT22;11139;51.284;7.226;2023-11-19T07:36:39;8.90;99.90
21950;DHT22;11139;51.284;7.226;2023-11-19T07:39:05;8.90;99.90
21950;DHT22;11139;51.284;7.226;2023-11-19T07:41:31;8.90;99.90
21950;DHT22;11139;51.284;7.226;2023-11-19T07:43:56;8.80;99.90
21950;DHT22;11139;51.284;7.226;2023-11-19T07:46:22;8.90;99.90
21950;DHT22;11139;51.284;7.226;2023-11-19T07:48:47;8.80;99.90
21950;DHT22;11139;51.284;7.226;2023-11-19T07:51:13;8.90;99.90
21950;DHT22;11139;51.284;7.226;2023-11-19T07:53:39;8.80;99.90
21950;DHT22;11139;51.284;7.226;2023-11-19T07:56:06;8.90;99.90
21950;DHT22;11139;51.284;7.226;2023-11-19T07:58:31;8.90;99.90
21950;DHT22;11139;51.284;7.226;2023-11-19T08:00:57;8.90;99.90
21950;DHT22;11139;51.284;7.226;2023-11-19T08:03:23;8.90;99.90
21950;DHT22;11139;51.284;7.226;2023-11-19T08:05:49;8.90;99.90
21950;DHT22;11139;51.284;7.226;2023-11-19T08:08:14;8.90;99.90
21950;DHT22;11139;51.284;7.226;2023-11-19T08:10:40;8.90;99.90
21950;DHT22;11139;51.284;7.226;2023-11-19T08:13:05;8.90;99.90
21950;DHT22;11139;51.284;7.226;2023-11-19T08:15:31;8.90;99.90
21950;DHT22;11139;51.284;7.226;2023-11-19T08:17:57;8.90;99.90
21950;DHT22;11139;51.284;7.226;2023-11-19T08:20:22;9.00;99.90
21950;DHT22;11139;51.284;7.226;2023-11-19T08:22:50;8.90;99.90
21950;DHT22;11139;51.284;7.226;2023-11-19T08:25:16;8.90;99.90
21950;DHT22;11139;51.284;7.226;2023-11-19T08:27:42;9.00;99.90
21950;DHT22;11139;51.284;7.226;2023-11-19T08:30:08;8.90;99.90
21950;DHT22;11139;51.284;7.226;2023-11-19T08:32:34;9.00;99.90
21950;DHT22;11139;51.284;7.226;2023-11-19T08:34:59;8.90;99.90
21950;DHT22;11139;51.284;7.226;2023-11-19T08:37:25;9.00;99.90
21950;DHT22;11139;51.284;7.226;2023-11-19T08:39:50;8.90;99.90
21950;DHT22;11139;51.284;7.226;2023-11-19T08:42:16;9.00;99.90
21950;DHT22;11139;51.284;7.226;2023-11-19T08:44:42;9.00;99.90
21950;DHT22;11139;51.284;7.226;2023-11-19T08:47:09;9.00;99.90
21950;DHT22;11139;51.284;7.226;2023-11-19T08:49:35;9.00;99.90
21950;DHT22;11139;51.284;7.226;2023-11-19T08:52:00;9.00;99.90
21950;DHT22;11139;51.284;7.226;2023-11-19T08:54:26;9.00;99.90
21950;DHT22;11139;51.284;7.226;2023-11-19T08:56:51;9.00;99.90
21950;DHT22;11139;51.284;7.226;2023-11-19T08:59:17;9.00;99.90
21950;DHT22;11139;51.284;7.226;2023-11-19T09:01:44;9.00;99.90
21950;DHT22;11139;51.284;7.226;2023-11-19T09:04:09;9.00;99.90
21950;DHT22;11139;51.284;7.226;2023-11-19T09:06:36;9.00;99.90
21950;DHT22;11139;51.284;7.226;2023-11-19T09:09:01;9.00;99.90
21950;DHT22;11139;51.284;7.226;2023-11-19T09:11:31;9.00;99.90
21950;DHT22;11139;51.284;7.226;2023-11-19T09:13:57;9.00;99.90
21950;DHT22;11139;51.284;7.226;2023-11-19T09:16:22;9.10;99.90
21950;DHT22;11139;51.284;7.226;2023-11-19T09:18:48;9.10;99.90
21950;DHT22;11139;51.284;7.226;2023-11-19T09:21:13;9.10;99.90
21950;DHT22;11139;51.284;7.226;2023-11-19T09:23:39;9.00;99.90
21950;DHT22;11139;51.284;7.226;2023-11-19T09:26:05;9.10;99.90
21950;DHT22;11139;51.284;7.226;2023-11-19T09:28:31;9.10;99.90
21950;DHT22;11139;51.284;7.226;2023-11-19T09:30:57;9.10;99.90
21950;DHT22;11139;51.284;7.226;2023-11-19T09:33:23;9.10;99.90
21950;DHT22;11139;51.284;7.226;2023-11-19T09:35:48;9.10;99.90
21950;DHT22;11139;51.284;7.226;2023-11-19T09:38:15;9.10;99.90
21950;DHT22;11139;51.284;7.226;2023-11-19T09:40:40;9.10;99.90
21950;DHT22;11139;51.284;7.226;2023-11-19T09:43:06;9.10;99.90
21950;DHT22;11139;51.284;7.226;2023-11-19T09:45:32;9.10;99.90
21950;DHT22;11139;51.284;7.226;2023-11-19T09:48:08;9.10;99.90
21950;DHT22;11139;51.284;7.226;2023-11-19T09:50:34;9.10;99.90
21950;DHT22;11139;51.284;7.226;2023-11-19T09:52:59;9.10;99.90
21950;DHT22;11139;51.284;7.226;2023-11-19T09:55:25;9.10;99.90
21950;DHT22;11139;51.284;7.226;2023-11-19T09:57:50;9.10;99.90
21950;DHT22;11139;51.284;7.226;2023-11-19T10:00:17;9.10;99.90
21950;DHT22;11139;51.284;7.226;2023-11-19T10:02:44;9.10;99.90
21950;DHT22;11139;51.284;7.226;2023-11-19T10:05:11;9.10;99.90
21950;DHT22;11139;51.284;7.226;2023-11-19T10:07:38;9.10;99.90
21950;DHT22;11139;51.284;7.226;2023-11-19T10:10:04;9.10;99.90
21950;DHT22;11139;51.284;7.226;2023-11-19T10:12:29;9.20;99.90
21950;DHT22;11139;51.284;7.226;2023-11-19T10:14:56;9.20;99.90
21950;DHT22;11139;51.284;7.226;2023-11-19T10:17:22;9.20;99.90
21950;DHT22;11139;51.284;7.226;2023-11-19T10:19:48;9.20;99.90
21950;DHT22;11139;51.284;7.226;2023-11-19T10:22:13;9.20;99.90
21950;DHT22;11139;51.284;7.226;2023-11-19T10:24:41;9.20;99.90
21950;DHT22;11139;51.284;7.226;2023-11-19T10:27:07;9.20;99.90
21950;DHT22;11139;51.284;7.226;2023-11-19T10:29:36;9.20;99.90
21950;DHT22;11139;51.284;7.226;2023-11-19T10:32:01;9.20;99.90
21950;DHT22;11139;51.284;7.226;2023-11-19T10:34:27;9.20;99.90
21950;DHT22;11139;51.284;7.226;2023-11-19T10:36:53;9.20;99.90
21950;DHT22;11139;51.284;7.226;2023-11-19T10:39:18;9.20;99.90
21950;DHT22;11139;51.284;7.226;2023-11-19T10:41:44;9.20;99.90
21950;DHT22;11139;51.284;7.226;2023-11-19T10:44:09;9.20;99.90
21950;DHT22;11139;51.284;7.226;2023-11-19T10:49:07;9.20;99.90
21950;DHT22;11139;51.284;7.226;2023-11-19T10:51:33;9.20;99.90
21950;DHT22;11139;51.284;7.226;2023-11-19T10:54:01;9.20;99.90
21950;DHT22;11139;51.284;7.226;2023-11-19T10:56:29;9.20;99.90
21950;DHT22;11139;51.284;7.226;2023-11-19T10:58:55;9.30;99.90
21950;DHT22;11139;51.284;7.226;2023-11-19T11:01:24;9.20;99.90
21950;DHT22;11139;51.284;7.226;2023-11-19T11:03:51;9.30;99.90
21950;DHT22;11139;51.284;7.226;2023-11-19T11:06:19;9.30;99.90
21950;DHT22;11139;51.284;7.226;2023-11-19T11:08:46;9.20;99.90
21950;DHT22;11139;51.284;7.226;2023-11-19T11:11:13;9.20;99.90
21950;DHT22;11139;51.284;7.226;2023-11-19T11:13:42;9.20;99.90
21950;DHT22;11139;51.284;7.226;2023-11-19T11:16:07;9.30;99.90
21950;DHT22;11139;51.284;7.226;2023-11-19T11:18:33;9.30;99.90
21950;DHT22;11139;51.284;7.226;2023-11-19T11:39:33;9.30;99.90
21950;DHT22;11139;51.284;7.226;2023-11-19T11:50:10;9.30;99.90
21950;DHT22;11139;51.284;7.226;2023-11-19T11:53:22;9.30;99.90
21950;DHT22;11139;51.284;7.226;2023-11-19T11:57:50;9.40;99.90
21950;DHT22;11139;51.284;7.226;2023-11-19T12:00:32;9.40;99.90
21950;DHT22;11139;51.284;7.226;2023-11-19T12:03:00;9.40;99.90
21950;DHT22;11139;51.284;7.226;2023-11-19T12:05:26;9.40;99.90
21950;DHT22;11139;51.284;7.226;2023-11-19T12:08:05;9.40;99.90
21950;DHT22;11139;51.284;7.226;2023-11-19T12:10:36;9.40;99.90
21950;DHT22;11139;51.284;7.226;2023-11-19T12:13:04;9.40;99.90
21950;DHT22;11139;51.284;7.226;2023-11-19T12:15:31;9.40;99.90
21950;DHT22;11139;51.284;7.226;2023-11-19T12:17:56;9.50;99.90
21950;DHT22;11139;51.284;7.226;2023-11-19T12:20:23;9.50;99.90
21950;DHT22;11139;51.284;7.226;2023-11-19T12:22:49;9.50;99.90
21950;DHT22;11139;51.284;7.226;2023-11-19T12:25:16;9.50;99.90
21950;DHT22;11139;51.284;7.226;2023-11-19T12:27:44;9.50;99.90
21950;DHT22;11139;51.284;7.226;2023-11-19T12:30:09;9.50;99.90
21950;DHT22;11139;51.284;7.226;2023-11-19T12:32:39;9.50;99.90
21950;DHT22;11139;51.284;7.226;2023-11-19T12:35:06;9.50;99.90
21950;DHT22;11139;51.284;7.226;2023-11-19T12:37:32;9.50;99.90
21950;DHT22;11139;51.284;7.226;2023-11-19T12:39:58;9.50;99.90
21950;DHT22;11139;51.284;7.226;2023-11-19T12:42:36;9.50;99.90
21950;DHT22;11139;51.284;7.226;2023-11-19T12:45:02;9.50;99.90
21950;DHT22;11139;51.284;7.226;2023-11-19T12:47:28;9.50;99.90
21950;DHT22;11139;51.284;7.226;2023-11-19T12:49:56;9.60;99.90
21950;DHT22;11139;51.284;7.226;2023-11-19T12:52:22;9.60;99.90
21950;DHT22;11139;51.284;7.226;2023-11-19T12:54:49;9.60;99.90
21950;DHT22;11139;51.284;7.226;2023-11-19T12:57:14;9.60;99.90
21950;DHT22;11139;51.284;7.226;2023-11-19T12:59:40;9.60;99.90
21950;DHT22;11139;51.284;7.226;2023-11-19T13:02:06;9.60;99.90
21950;DHT22;11139;51.284;7.226;2023-11-19T13:04:32;9.70;99.90
21950;DHT22;11139;51.284;7.226;2023-11-19T13:06:58;9.60;99.90
21950;DHT22;11139;51.284;7.226;2023-11-19T13:09:26;9.70;99.90
21950;DHT22;11139;51.284;7.226;2023-11-19T13:11:56;9.60;99.90
21950;DHT22;11139;51.284;7.226;2023-11-19T13:14:21;9.70;99.90
21950;DHT22;11139;51.284;7.226;2023-11-19T13:16:47;9.70;99.90
21950;DHT22;11139;51.284;7.226;2023-11-19T13:19:16;9.70;99.90
21950;DHT22;11139;51.284;7.226;2023-11-19T13:21:43;9.70;99.90
21950;DHT22;11139;51.284;7.226;2023-11-19T13:24:12;9.70;99.90
21950;DHT22;11139;51.284;7.226;2023-11-19T13:26:38;9.70;99.90
21950;DHT22;11139;51.284;7.226;2023-11-19T13:29:04;9.70;99.90
21950;DHT22;11139;51.284;7.226;2023-11-19T13:31:29;9.70;99.90
21950;DHT22;11139;51.284;7.226;2023-11-19T13:33:55;9.80;99.90
21950;DHT22;11139;51.284;7.226;2023-11-19T13:36:22;9.70;99.90
21950;DHT22;11139;51.284;7.226;2023-11-19T13:38:47;9.80;99.90
21950;DHT22;11139;51.284;7.226;2023-11-19T13:41:13;9.70;99.90
21950;DHT22;11139;51.284;7.226;2023-11-19T13:43:39;9.80;99.90
21950;DHT22;11139;51.284;7.226;2023-11-19T13:46:05;9.80;99.90
21950;DHT22;11139;51.284;7.226;2023-11-19T13:48:30;9.80;99.90
21950;DHT22;11139;51.284;7.226;2023-11-19T13:50:56;9.80;99.90
21950;DHT22;11139;51.284;7.226;2023-11-19T13:53:22;9.80;99.90
21950;DHT22;11139;51.284;7.226;2023-11-19T13:55:49;9.80;99.90
21950;DHT22;11139;51.284;7.226;2023-11-19T13:58:14;9.80;99.90
21950;DHT22;11139;51.284;7.226;2023-11-19T14:00:41;9.80;99.90
21950;DHT22;11139;51.284;7.226;2023-11-19T14:03:07;9.80;99.90
21950;DHT22;11139;51.284;7.226;2023-11-19T14:05:34;9.80;99.90
21950;DHT22;11139;51.284;7.226;2023-11-19T14:08:00;9.80;99.90
21950;DHT22;11139;51.284;7.226;2023-11-19T14:10:26;9.90;99.90
21950;DHT22;11139;51.284;7.226;2023-11-19T14:12:52;9.80;99.90
21950;DHT22;11139;51.284;7.226;2023-11-19T14:15:18;9.80;99.90
21950;DHT22;11139;51.284;7.226;2023-11-19T14:17:43;9.80;99.90
21950;DHT22;11139;51.284;7.226;2023-11-19T14:20:09;9.80;99.90
21950;DHT22;11139;51.284;7.226;2023-11-19T14:22:43;9.80;99.90
21950;DHT22;11139;51.284;7.226;2023-11-19T14:25:09;9.80;99.90
21950;DHT22;11139;51.284;7.226;2023-11-19T14:27:38;9.80;99.90
21950;DHT22;11139;51.284;7.226;2023-11-19T14:30:05;9.80;99.90
21950;DHT22;11139;51.284;7.226;2023-11-19T14:32:30;9.80;99.90
21950;DHT22;11139;51.284;7.226;2023-11-19T14:34:56;9.90;99.90
21950;DHT22;11139;51.284;7.226;2023-11-19T14:37:21;9.80;99.90
21950;DHT22;11139;51.284;7.226;2023-11-19T14:39:47;9.80;99.90
21950;DHT22;11139;51.284;7.226;2023-11-19T14:42:12;9.80;99.90
21950;DHT22;11139;51.284;7.226;2023-11-19T14:44:39;9.80;99.90
21950;DHT22;11139;51.284;7.226;2023-11-19T14:47:05;9.90;99.90
21950;DHT22;11139;51.284;7.226;2023-11-19T14:49:30;9.90;99.90
21950;DHT22;11139;51.284;7.226;2023-11-19T14:51:56;9.90;99.90
21950;DHT22;11139;51.284;7.226;2023-11-19T14:54:22;9.80;99.90
21950;DHT22;11139;51.284;7.226;2023-11-19T14:56:47;9.90;99.90
21950;DHT22;11139;51.284;7.226;2023-11-19T14:59:13;9.90;99.90
21950;DHT22;11139;51.284;7.226;2023-11-19T15:01:38;9.90;99.90
21950;DHT22;11139;51.284;7.226;2023-11-19T15:04:05;9.90;99.90
21950;DHT22;11139;51.284;7.226;2023-11-19T15:06:31;9.90;99.90
21950;DHT22;11139;51.284;7.226;2023-11-19T15:08:58;9.90;99.90
21950;DHT22;11139;51.284;7.226;2023-11-19T15:11:24;9.90;99.90
21950;DHT22;11139;51.284;7.226;2023-11-19T15:13:49;9.90;99.90
21950;DHT22;11139;51.284;7.226;2023-11-19T15:16:15;9.90;99.90
21950;DHT22;11139;51.284;7.226;2023-11-19T15:18:47;9.90;99.90
21950;DHT22;11139;51.284;7.226;2023-11-19T15:21:12;9.90;99.90
21950;DHT22;11139;51.284;7.226;2023-11-19T15:23:38;9.90;99.90
21950;DHT22;11139;51.284;7.226;2023-11-19T15:26:05;9.90;99.90
21950;DHT22;11139;51.284;7.226;2023-11-19T15:28:33;9.90;99.90
21950;DHT22;11139;51.284;7.226;2023-11-19T15:30:58;9.90;99.90
21950;DHT22;11139;51.284;7.226;2023-11-19T15:33:24;10.00;99.90
21950;DHT22;11139;51.284;7.226;2023-11-19T15:35:49;9.90;99.90
21950;DHT22;11139;51.284;7.226;2023-11-19T15:38:15;9.90;99.90
21950;DHT22;11139;51.284;7.226;2023-11-19T15:40:41;9.90;99.90
21950;DHT22;11139;51.284;7.226;2023-11-19T15:43:07;9.90;99.90
21950;DHT22;11139;51.284;7.226;2023-11-19T15:45:33;10.00;99.90
21950;DHT22;11139;51.284;7.226;2023-11-19T15:48:03;9.90;99.90
21950;DHT22;11139;51.284;7.226;2023-11-19T15:50:28;9.90;99.90
21950;DHT22;11139;51.284;7.226;2023-11-19T15:52:54;9.90;99.90
21950;DHT22;11139;51.284;7.226;2023-11-19T15:55:20;10.00;99.90
21950;DHT22;11139;51.284;7.226;2023-11-19T15:57:45;9.90;99.90
21950;DHT22;11139;51.284;7.226;2023-11-19T16:00:11;9.90;99.90
21950;DHT22;11139;51.284;7.226;2023-11-19T16:02:36;9.90;99.90
21950;DHT22;11139;51.284;7.226;2023-11-19T16:05:02;9.90;99.90
21950;DHT22;11139;51.284;7.226;2023-11-19T16:07:30;10.00;99.90
21950;DHT22;11139;51.284;7.226;2023-11-19T16:09:55;10.00;99.90